CFGRI CYTZ-CNK4
Flight info
| Callsign | CFGRI |
|---|---|
| Flight time | 1h 17m |
| Altitude | 4500 |
| Route | CYTZ SUBHDG MARKHAM BARRIE DCT CYQA DCT CNK4 |
| Aircraft | C172/L-SFG/C |
Departure
| Time | 2026-04-28 01:28 |
|---|---|
| Airport | Billy Bishop Toronto City Airport (CYTZ) |
Arrival
| Time | 2026-04-28 02:45 |
|---|---|
| Airport | Parry Sound Area Municipal Airport (CNK4) |
| Time | Latitude | Longitude | Altitude | Speed | Heading |
|---|---|---|---|---|---|
| 2026-04-28 00:55 | 43.63234 | -79.39460 | 254 ft | 0 kts | 204° |
| 2026-04-28 01:20 | 43.63228 | -79.39460 | 254 ft | 5 kts | 165° |
| 2026-04-28 01:20 | 43.63187 | -79.39417 | 255 ft | 7 kts | 143° |
| 2026-04-28 01:20 | 43.63166 | -79.39373 | 255 ft | 4 kts | 109° |
| 2026-04-28 01:21 | 43.63157 | -79.39346 | 255 ft | 1 kts | 117° |
| 2026-04-28 01:21 | 43.63155 | -79.39342 | 255 ft | 3 kts | 119° |
| 2026-04-28 01:21 | 43.63112 | -79.39333 | 255 ft | 9 kts | 221° |
| 2026-04-28 01:21 | 43.63077 | -79.39400 | 255 ft | 9 kts | 250° |
| 2026-04-28 01:22 | 43.63055 | -79.39491 | 255 ft | 11 kts | 250° |
| 2026-04-28 01:22 | 43.63033 | -79.39583 | 255 ft | 9 kts | 253° |
| 2026-04-28 01:22 | 43.63020 | -79.39672 | 255 ft | 10 kts | 236° |
| 2026-04-28 01:22 | 43.62988 | -79.39743 | 255 ft | 8 kts | 251° |
| 2026-04-28 01:23 | 43.62974 | -79.39808 | 255 ft | 6 kts | 251° |
| 2026-04-28 01:23 | 43.62971 | -79.39857 | 255 ft | 5 kts | 294° |
| 2026-04-28 01:23 | 43.62988 | -79.39903 | 254 ft | 7 kts | 297° |
| 2026-04-28 01:23 | 43.63010 | -79.39974 | 254 ft | 10 kts | 291° |
| 2026-04-28 01:24 | 43.63016 | -79.40075 | 252 ft | 13 kts | 233° |
| 2026-04-28 01:24 | 43.62943 | -79.40192 | 250 ft | 22 kts | 219° |
| 2026-04-28 01:24 | 43.62815 | -79.40331 | 250 ft | 9 kts | 229° |
| 2026-04-28 01:24 | 43.62813 | -79.40335 | 250 ft | 0 kts | 249° |
| 2026-04-28 01:26 | 43.62793 | -79.40343 | 250 ft | 6 kts | 166° |
| 2026-04-28 01:26 | 43.62764 | -79.40331 | 251 ft | 5 kts | 163° |
| 2026-04-28 01:26 | 43.62756 | -79.40285 | 252 ft | 6 kts | 71° |
| 2026-04-28 01:27 | 43.62800 | -79.40106 | 252 ft | 42 kts | 72° |
| 2026-04-28 01:27 | 43.62943 | -79.39572 | 266 ft | 75 kts | 71° |
| 2026-04-28 01:27 | 43.63128 | -79.38823 | 360 ft | 89 kts | 72° |
| 2026-04-28 01:27 | 43.63341 | -79.38031 | 578 ft | 87 kts | 71° |
| 2026-04-28 01:28 | 43.63532 | -79.37266 | 829 ft | 80 kts | 69° |
| 2026-04-28 01:28 | 43.63734 | -79.36549 | 1001 ft | 83 kts | 71° |
| 2026-04-28 01:28 | 43.63981 | -79.35893 | 1260 ft | 78 kts | 64° |
| 2026-04-28 01:28 | 43.64263 | -79.35254 | 1459 ft | 78 kts | 58° |
| 2026-04-28 01:29 | 43.64627 | -79.34702 | 1658 ft | 78 kts | 54° |
| 2026-04-28 01:29 | 43.64878 | -79.34029 | 1798 ft | 81 kts | 82° |
| 2026-04-28 01:29 | 43.64952 | -79.33312 | 2050 ft | 74 kts | 78° |
| 2026-04-28 01:29 | 43.65137 | -79.32612 | 2217 ft | 78 kts | 70° |
| 2026-04-28 01:30 | 43.65418 | -79.31940 | 2383 ft | 82 kts | 69° |
| 2026-04-28 01:30 | 43.65725 | -79.31172 | 2388 ft | 100 kts | 67° |
| 2026-04-28 01:30 | 43.66000 | -79.30624 | 2397 ft | 108 kts | 62° |
| 2026-04-28 01:30 | 43.66442 | -79.29798 | 2411 ft | 102 kts | 63° |
| 2026-04-28 01:31 | 43.66850 | -79.28994 | 2301 ft | 103 kts | 65° |
| 2026-04-28 01:31 | 43.67196 | -79.28152 | 2263 ft | 99 kts | 70° |
| 2026-04-28 01:31 | 43.67518 | -79.27330 | 2235 ft | 97 kts | 62° |
| 2026-04-28 01:31 | 43.67943 | -79.26616 | 2203 ft | 95 kts | 57° |
| 2026-04-28 01:32 | 43.68424 | -79.25959 | 2150 ft | 97 kts | 50° |
| 2026-04-28 01:32 | 43.68985 | -79.25437 | 2170 ft | 97 kts | 36° |
| 2026-04-28 01:32 | 43.69626 | -79.25137 | 2181 ft | 98 kts | 28° |
| 2026-04-28 01:32 | 43.70244 | -79.24734 | 2175 ft | 97 kts | 41° |
| 2026-04-28 01:33 | 43.70776 | -79.24191 | 2195 ft | 93 kts | 47° |
| 2026-04-28 01:33 | 43.71261 | -79.23594 | 2209 ft | 92 kts | 54° |
| 2026-04-28 01:33 | 43.71718 | -79.22973 | 2212 ft | 94 kts | 52° |
| 2026-04-28 01:33 | 43.72182 | -79.22358 | 2267 ft | 91 kts | 53° |
| 2026-04-28 01:34 | 43.72612 | -79.21718 | 2320 ft | 92 kts | 56° |
| 2026-04-28 01:34 | 43.73058 | -79.21049 | 2330 ft | 95 kts | 59° |
| 2026-04-28 01:34 | 43.73467 | -79.20352 | 2345 ft | 93 kts | 60° |
| 2026-04-28 01:34 | 43.73877 | -79.19634 | 2319 ft | 96 kts | 63° |
| 2026-04-28 01:35 | 43.74264 | -79.18893 | 2327 ft | 95 kts | 62° |
| 2026-04-28 01:35 | 43.74656 | -79.18157 | 2303 ft | 96 kts | 62° |
| 2026-04-28 01:35 | 43.75066 | -79.17432 | 2306 ft | 95 kts | 58° |
| 2026-04-28 01:35 | 43.75555 | -79.16824 | 2356 ft | 95 kts | 41° |
| 2026-04-28 01:36 | 43.76201 | -79.16564 | 2439 ft | 100 kts | 8° |
| 2026-04-28 01:36 | 43.76905 | -79.16760 | 2446 ft | 107 kts | 353° |
| 2026-04-28 01:36 | 43.77610 | -79.17025 | 2591 ft | 102 kts | 351° |
| 2026-04-28 01:36 | 43.78292 | -79.17360 | 2758 ft | 105 kts | 348° |
| 2026-04-28 01:37 | 43.78986 | -79.17700 | 2913 ft | 106 kts | 349° |
| 2026-04-28 01:37 | 43.79688 | -79.18022 | 3086 ft | 108 kts | 351° |
| 2026-04-28 01:37 | 43.80400 | -79.18394 | 3256 ft | 110 kts | 342° |
| 2026-04-28 01:37 | 43.81116 | -79.18823 | 3396 ft | 113 kts | 336° |
| 2026-04-28 01:38 | 43.81822 | -79.19362 | 3476 ft | 123 kts | 335° |
| 2026-04-28 01:38 | 43.82602 | -79.19897 | 3416 ft | 126 kts | 339° |
| 2026-04-28 01:38 | 43.83402 | -79.20382 | 3380 ft | 127 kts | 345° |
| 2026-04-28 01:38 | 43.84213 | -79.20820 | 3407 ft | 123 kts | 347° |
| 2026-04-28 01:39 | 43.85033 | -79.21256 | 3335 ft | 127 kts | 342° |
| 2026-04-28 01:39 | 43.85791 | -79.21872 | 3335 ft | 128 kts | 323° |
| 2026-04-28 01:39 | 43.86416 | -79.22747 | 3315 ft | 127 kts | 306° |
| 2026-04-28 01:39 | 43.86922 | -79.23736 | 3282 ft | 127 kts | 302° |
| 2026-04-28 01:40 | 43.87414 | -79.24743 | 3283 ft | 125 kts | 301° |
| 2026-04-28 01:40 | 43.87865 | -79.25757 | 3269 ft | 126 kts | 296° |
| 2026-04-28 01:40 | 43.88276 | -79.26813 | 3278 ft | 124 kts | 294° |
| 2026-04-28 01:40 | 43.88696 | -79.27885 | 3274 ft | 124 kts | 297° |
| 2026-04-28 01:41 | 43.89148 | -79.28883 | 3280 ft | 124 kts | 304° |
| 2026-04-28 01:41 | 43.89733 | -79.29788 | 3280 ft | 124 kts | 318° |
| 2026-04-28 01:41 | 43.90369 | -79.30561 | 3309 ft | 124 kts | 319° |
| 2026-04-28 01:41 | 43.90995 | -79.31385 | 3329 ft | 125 kts | 314° |
| 2026-04-28 01:42 | 43.91572 | -79.32274 | 3376 ft | 124 kts | 311° |
| 2026-04-28 01:42 | 43.92131 | -79.33195 | 3412 ft | 125 kts | 309° |
| 2026-04-28 01:42 | 43.92660 | -79.34143 | 3475 ft | 125 kts | 308° |
| 2026-04-28 01:42 | 43.93206 | -79.35107 | 3487 ft | 128 kts | 305° |
| 2026-04-28 01:43 | 43.93769 | -79.36124 | 3447 ft | 133 kts | 306° |
| 2026-04-28 01:43 | 43.94322 | -79.37143 | 3424 ft | 134 kts | 306° |
| 2026-04-28 01:43 | 43.94888 | -79.38176 | 3419 ft | 133 kts | 306° |
| 2026-04-28 01:43 | 43.95432 | -79.39212 | 3408 ft | 134 kts | 303° |
| 2026-04-28 01:44 | 43.95946 | -79.40273 | 3445 ft | 131 kts | 301° |
| 2026-04-28 01:44 | 43.96436 | -79.41339 | 3429 ft | 132 kts | 300° |
| 2026-04-28 01:44 | 43.96930 | -79.42423 | 3433 ft | 131 kts | 300° |
| 2026-04-28 01:44 | 43.97405 | -79.43491 | 3437 ft | 130 kts | 298° |
| 2026-04-28 01:45 | 43.97870 | -79.44567 | 3423 ft | 131 kts | 298° |
| 2026-04-28 01:45 | 43.98347 | -79.45646 | 3411 ft | 131 kts | 298° |
| 2026-04-28 01:45 | 43.98799 | -79.46735 | 3405 ft | 130 kts | 298° |
| 2026-04-28 01:45 | 43.99268 | -79.47823 | 3371 ft | 132 kts | 297° |
| 2026-04-28 01:46 | 43.99706 | -79.48941 | 3381 ft | 131 kts | 292° |
| 2026-04-28 01:46 | 44.00097 | -79.50087 | 3392 ft | 132 kts | 295° |
| 2026-04-28 01:46 | 44.00563 | -79.51151 | 3409 ft | 131 kts | 305° |
| 2026-04-28 01:46 | 44.01204 | -79.52019 | 3483 ft | 127 kts | 323° |
| 2026-04-28 01:47 | 44.01907 | -79.52813 | 3462 ft | 131 kts | 324° |
| 2026-04-28 01:47 | 44.02609 | -79.53623 | 3461 ft | 132 kts | 322° |
| 2026-04-28 01:47 | 44.03307 | -79.54426 | 3489 ft | 129 kts | 322° |
| 2026-04-28 01:47 | 44.04000 | -79.55241 | 3476 ft | 132 kts | 323° |
| 2026-04-28 01:48 | 44.04732 | -79.56009 | 3497 ft | 131 kts | 333° |
| 2026-04-28 01:48 | 44.05567 | -79.56507 | 3499 ft | 131 kts | 343° |
| 2026-04-28 01:48 | 44.06436 | -79.57009 | 3400 ft | 140 kts | 343° |
| 2026-04-28 01:48 | 44.07318 | -79.57542 | 3449 ft | 135 kts | 339° |
| 2026-04-28 01:49 | 44.08156 | -79.58149 | 3429 ft | 136 kts | 342° |
| 2026-04-28 01:49 | 44.09036 | -79.58623 | 3428 ft | 136 kts | 342° |
| 2026-04-28 01:49 | 44.09864 | -79.59102 | 3658 ft | 123 kts | 346° |
| 2026-04-28 01:49 | 44.10653 | -79.59492 | 3893 ft | 115 kts | 349° |
| 2026-04-28 01:50 | 44.11411 | -79.59866 | 4034 ft | 119 kts | 346° |
| 2026-04-28 01:50 | 44.12170 | -79.60362 | 4182 ft | 119 kts | 345° |
| 2026-04-28 01:50 | 44.12947 | -79.60755 | 4312 ft | 121 kts | 347° |
| 2026-04-28 01:50 | 44.13738 | -79.61157 | 4456 ft | 121 kts | 343° |
| 2026-04-28 01:51 | 44.14548 | -79.61578 | 4546 ft | 125 kts | 345° |
| 2026-04-28 01:51 | 44.15374 | -79.61944 | 4584 ft | 127 kts | 349° |
| 2026-04-28 01:51 | 44.16231 | -79.62279 | 4611 ft | 129 kts | 349° |
| 2026-04-28 01:51 | 44.17096 | -79.62578 | 4595 ft | 130 kts | 352° |
| 2026-04-28 01:52 | 44.17998 | -79.62829 | 4515 ft | 136 kts | 356° |
| 2026-04-28 01:52 | 44.18905 | -79.63068 | 4532 ft | 131 kts | 349° |
| 2026-04-28 01:52 | 44.19789 | -79.63466 | 4505 ft | 133 kts | 343° |
| 2026-04-28 01:52 | 44.20656 | -79.63914 | 4481 ft | 134 kts | 341° |
| 2026-04-28 01:53 | 44.21509 | -79.64417 | 4478 ft | 132 kts | 338° |
| 2026-04-28 01:53 | 44.22361 | -79.64930 | 4456 ft | 134 kts | 339° |
| 2026-04-28 01:53 | 44.23220 | -79.65433 | 4480 ft | 133 kts | 339° |
| 2026-04-28 01:53 | 44.24071 | -79.65916 | 4475 ft | 134 kts | 341° |
| 2026-04-28 01:54 | 44.24934 | -79.66395 | 4492 ft | 132 kts | 340° |
| 2026-04-28 01:54 | 44.25789 | -79.66890 | 4479 ft | 134 kts | 339° |
| 2026-04-28 01:54 | 44.26658 | -79.67342 | 4496 ft | 132 kts | 345° |
| 2026-04-28 01:54 | 44.27528 | -79.67772 | 4477 ft | 133 kts | 344° |
| 2026-04-28 01:55 | 44.28376 | -79.68240 | 4497 ft | 130 kts | 339° |
| 2026-04-28 01:55 | 44.29225 | -79.68741 | 4460 ft | 133 kts | 338° |
| 2026-04-28 01:55 | 44.30055 | -79.69236 | 4459 ft | 132 kts | 342° |
| 2026-04-28 01:55 | 44.30942 | -79.69641 | 4425 ft | 133 kts | 343° |
| 2026-04-28 01:56 | 44.31807 | -79.70084 | 4422 ft | 133 kts | 343° |
| 2026-04-28 01:56 | 44.32683 | -79.70496 | 4409 ft | 133 kts | 346° |
| 2026-04-28 01:56 | 44.33582 | -79.70724 | 4366 ft | 131 kts | 9° |
| 2026-04-28 01:56 | 44.34444 | -79.70504 | 4349 ft | 125 kts | 24° |
| 2026-04-28 01:57 | 44.35274 | -79.70199 | 4356 ft | 122 kts | 25° |
| 2026-04-28 01:57 | 44.36089 | -79.69906 | 4351 ft | 120 kts | 24° |
| 2026-04-28 01:57 | 44.36899 | -79.69634 | 4362 ft | 119 kts | 23° |
| 2026-04-28 01:57 | 44.37714 | -79.69369 | 4333 ft | 121 kts | 22° |
| 2026-04-28 01:58 | 44.38533 | -79.69111 | 4347 ft | 120 kts | 22° |
| 2026-04-28 01:58 | 44.39355 | -79.68865 | 4383 ft | 121 kts | 22° |
| 2026-04-28 01:58 | 44.40161 | -79.68587 | 4444 ft | 119 kts | 24° |
| 2026-04-28 01:58 | 44.40964 | -79.68327 | 4471 ft | 122 kts | 21° |
| 2026-04-28 01:59 | 44.41792 | -79.68101 | 4500 ft | 120 kts | 20° |
| 2026-04-28 01:59 | 44.42599 | -79.67814 | 4488 ft | 122 kts | 26° |
| 2026-04-28 01:59 | 44.43409 | -79.67504 | 4554 ft | 119 kts | 24° |
| 2026-04-28 01:59 | 44.44229 | -79.67251 | 4574 ft | 124 kts | 20° |
| 2026-04-28 02:00 | 44.45072 | -79.66987 | 4586 ft | 124 kts | 24° |
| 2026-04-28 02:00 | 44.45881 | -79.66604 | 4587 ft | 123 kts | 33° |
| 2026-04-28 02:00 | 44.46652 | -79.66062 | 4542 ft | 126 kts | 41° |
| 2026-04-28 02:00 | 44.47406 | -79.65462 | 4565 ft | 122 kts | 39° |
| 2026-04-28 02:01 | 44.48157 | -79.64886 | 4575 ft | 123 kts | 40° |
| 2026-04-28 02:01 | 44.48913 | -79.64317 | 4577 ft | 125 kts | 38° |
| 2026-04-28 02:01 | 44.49693 | -79.63762 | 4556 ft | 127 kts | 34° |
| 2026-04-28 02:01 | 44.50483 | -79.63244 | 4560 ft | 124 kts | 39° |
| 2026-04-28 02:02 | 44.51254 | -79.62673 | 4535 ft | 127 kts | 35° |
| 2026-04-28 02:02 | 44.52024 | -79.62115 | 4533 ft | 126 kts | 39° |
| 2026-04-28 02:02 | 44.52804 | -79.61546 | 4549 ft | 124 kts | 39° |
| 2026-04-28 02:02 | 44.53579 | -79.60972 | 4521 ft | 127 kts | 37° |
| 2026-04-28 02:03 | 44.54378 | -79.60452 | 4544 ft | 127 kts | 33° |
| 2026-04-28 02:03 | 44.55177 | -79.59940 | 4548 ft | 126 kts | 35° |
| 2026-04-28 02:03 | 44.55960 | -79.59402 | 4543 ft | 125 kts | 38° |
| 2026-04-28 02:03 | 44.56720 | -79.58789 | 4519 ft | 125 kts | 41° |
| 2026-04-28 02:04 | 44.57478 | -79.58191 | 4512 ft | 126 kts | 41° |
| 2026-04-28 02:04 | 44.58228 | -79.57573 | 4558 ft | 122 kts | 40° |
| 2026-04-28 02:04 | 44.58967 | -79.56969 | 4534 ft | 125 kts | 41° |
| 2026-04-28 02:04 | 44.59724 | -79.56373 | 4555 ft | 125 kts | 39° |
| 2026-04-28 02:05 | 44.60486 | -79.55764 | 4550 ft | 126 kts | 42° |
| 2026-04-28 02:05 | 44.61220 | -79.55133 | 4605 ft | 122 kts | 43° |
| 2026-04-28 02:05 | 44.61951 | -79.54482 | 4539 ft | 127 kts | 45° |
| 2026-04-28 02:05 | 44.62694 | -79.53814 | 4573 ft | 124 kts | 40° |
| 2026-04-28 02:06 | 44.63426 | -79.53181 | 4569 ft | 124 kts | 44° |
| 2026-04-28 02:06 | 44.64144 | -79.52498 | 4554 ft | 124 kts | 48° |
| 2026-04-28 02:06 | 44.64822 | -79.51748 | 4533 ft | 123 kts | 52° |
| 2026-04-28 02:06 | 44.65452 | -79.50973 | 4551 ft | 119 kts | 53° |
| 2026-04-28 02:07 | 44.66065 | -79.50166 | 4505 ft | 122 kts | 54° |
| 2026-04-28 02:07 | 44.66699 | -79.49412 | 4506 ft | 122 kts | 49° |
| 2026-04-28 02:07 | 44.67370 | -79.48655 | 4473 ft | 122 kts | 48° |
| 2026-04-28 02:07 | 44.68116 | -79.48041 | 4444 ft | 127 kts | 35° |
| 2026-04-28 02:08 | 44.68945 | -79.47594 | 4440 ft | 128 kts | 27° |
| 2026-04-28 02:08 | 44.69787 | -79.47231 | 4351 ft | 127 kts | 24° |
| 2026-04-28 02:08 | 44.70642 | -79.46893 | 4235 ft | 124 kts | 25° |
| 2026-04-28 02:08 | 44.71463 | -79.46564 | 4160 ft | 120 kts | 27° |
| 2026-04-28 02:09 | 44.72225 | -79.46219 | 4147 ft | 113 kts | 28° |
| 2026-04-28 02:09 | 44.72947 | -79.45888 | 4158 ft | 105 kts | 28° |
| 2026-04-28 02:09 | 44.73656 | -79.45574 | 4097 ft | 108 kts | 29° |
| 2026-04-28 02:09 | 44.74360 | -79.45251 | 4094 ft | 106 kts | 32° |
| 2026-04-28 02:10 | 44.75056 | -79.44899 | 4072 ft | 107 kts | 32° |
| 2026-04-28 02:10 | 44.75755 | -79.44553 | 4072 ft | 106 kts | 29° |
| 2026-04-28 02:10 | 44.76471 | -79.44258 | 4042 ft | 107 kts | 29° |
| 2026-04-28 02:10 | 44.77178 | -79.43953 | 4025 ft | 107 kts | 30° |
| 2026-04-28 02:11 | 44.77853 | -79.43574 | 4032 ft | 103 kts | 37° |
| 2026-04-28 02:11 | 44.78533 | -79.43194 | 4009 ft | 107 kts | 32° |
| 2026-04-28 02:11 | 44.79229 | -79.42858 | 3997 ft | 107 kts | 28° |
| 2026-04-28 02:11 | 44.79954 | -79.42575 | 3981 ft | 106 kts | 30° |
| 2026-04-28 02:12 | 44.80623 | -79.42180 | 3976 ft | 104 kts | 37° |
| 2026-04-28 02:12 | 44.81287 | -79.41759 | 3972 ft | 104 kts | 39° |
| 2026-04-28 02:12 | 44.81947 | -79.41340 | 3968 ft | 106 kts | 36° |
| 2026-04-28 02:12 | 44.82620 | -79.40923 | 3946 ft | 105 kts | 38° |
| 2026-04-28 02:13 | 44.83289 | -79.40485 | 3909 ft | 106 kts | 41° |
| 2026-04-28 02:13 | 44.83928 | -79.40006 | 3928 ft | 104 kts | 40° |
| 2026-04-28 02:13 | 44.84587 | -79.39532 | 3881 ft | 107 kts | 40° |
| 2026-04-28 02:13 | 44.85251 | -79.39006 | 3817 ft | 110 kts | 45° |
| 2026-04-28 02:14 | 44.85887 | -79.38415 | 3776 ft | 109 kts | 47° |
| 2026-04-28 02:14 | 44.86505 | -79.37787 | 3713 ft | 110 kts | 48° |
| 2026-04-28 02:14 | 44.87135 | -79.37191 | 3712 ft | 108 kts | 44° |
| 2026-04-28 02:14 | 44.87725 | -79.36679 | 3661 ft | 110 kts | 45° |
| 2026-04-28 02:15 | 44.88142 | -79.36286 | 3656 ft | 109 kts | 47° |
| 2026-04-28 02:16 | 44.88760 | -79.35660 | 3619 ft | 108 kts | 50° |
| 2026-04-28 02:16 | 44.89367 | -79.35027 | 3576 ft | 110 kts | 50° |
| 2026-04-28 02:16 | 44.89960 | -79.34382 | 3574 ft | 106 kts | 51° |
| 2026-04-28 02:16 | 44.90555 | -79.33728 | 3522 ft | 109 kts | 48° |
| 2026-04-28 02:17 | 44.91191 | -79.33151 | 3501 ft | 109 kts | 44° |
| 2026-04-28 02:17 | 44.91826 | -79.32560 | 3442 ft | 106 kts | 48° |
| 2026-04-28 02:17 | 44.92406 | -79.31911 | 3276 ft | 108 kts | 54° |
| 2026-04-28 02:17 | 44.92910 | -79.31178 | 3213 ft | 101 kts | 63° |
| 2026-04-28 02:18 | 44.93346 | -79.30389 | 3072 ft | 102 kts | 67° |
| 2026-04-28 02:18 | 44.93813 | -79.29636 | 2908 ft | 105 kts | 49° |
| 2026-04-28 02:18 | 44.94534 | -79.29287 | 2786 ft | 107 kts | 22° |
| 2026-04-28 02:18 | 44.95029 | -79.29147 | 2638 ft | 110 kts | 19° |
| 2026-04-28 02:19 | 44.95781 | -79.28919 | 2409 ft | 113 kts | 21° |
| 2026-04-28 02:19 | 44.96518 | -79.28659 | 2279 ft | 106 kts | 20° |
| 2026-04-28 02:19 | 44.97250 | -79.28489 | 2048 ft | 109 kts | 4° |
| 2026-04-28 02:19 | 44.97993 | -79.28519 | 1879 ft | 105 kts | 5° |
| 2026-04-28 02:20 | 44.98728 | -79.28502 | 1754 ft | 104 kts | 2° |
| 2026-04-28 02:20 | 44.99433 | -79.28467 | 1706 ft | 92 kts | 8° |
| 2026-04-28 02:20 | 45.00043 | -79.28398 | 1601 ft | 87 kts | 9° |
| 2026-04-28 02:20 | 45.00642 | -79.28507 | 1524 ft | 86 kts | 339° |
| 2026-04-28 02:21 | 45.01097 | -79.29023 | 1490 ft | 86 kts | 301° |
| 2026-04-28 02:21 | 45.01275 | -79.29811 | 1448 ft | 83 kts | 264° |
| 2026-04-28 02:21 | 45.01176 | -79.30645 | 1400 ft | 87 kts | 254° |
| 2026-04-28 02:21 | 45.00908 | -79.31329 | 1427 ft | 76 kts | 202° |
| 2026-04-28 02:22 | 45.00370 | -79.31395 | 1324 ft | 84 kts | 173° |
| 2026-04-28 02:22 | 44.99823 | -79.31272 | 1246 ft | 77 kts | 168° |
| 2026-04-28 02:22 | 44.99312 | -79.31112 | 1139 ft | 73 kts | 170° |
| 2026-04-28 02:22 | 44.98814 | -79.31003 | 1073 ft | 66 kts | 168° |
| 2026-04-28 02:23 | 44.98407 | -79.30895 | 995 ft | 58 kts | 166° |
| 2026-04-28 02:23 | 44.98036 | -79.30794 | 914 ft | 47 kts | 169° |
| 2026-04-28 02:23 | 44.97854 | -79.30732 | 914 ft | 0 kts | 172° |
| 2026-04-28 02:25 | 44.97822 | -79.30725 | 914 ft | 21 kts | 169° |
| 2026-04-28 02:25 | 44.97528 | -79.30654 | 918 ft | 63 kts | 170° |
| 2026-04-28 02:26 | 44.97049 | -79.30508 | 1075 ft | 70 kts | 170° |
| 2026-04-28 02:26 | 44.96550 | -79.30430 | 1252 ft | 78 kts | 178° |
| 2026-04-28 02:26 | 44.95988 | -79.30466 | 1463 ft | 85 kts | 182° |
| 2026-04-28 02:26 | 44.95404 | -79.30518 | 1652 ft | 84 kts | 174° |
| 2026-04-28 02:27 | 44.94785 | -79.30474 | 1771 ft | 92 kts | 181° |
| 2026-04-28 02:27 | 44.94150 | -79.30478 | 1968 ft | 90 kts | 179° |
| 2026-04-28 02:27 | 44.93605 | -79.30794 | 2206 ft | 94 kts | 232° |
| 2026-04-28 02:27 | 44.93600 | -79.31732 | 2353 ft | 107 kts | 299° |
| 2026-04-28 02:28 | 44.94109 | -79.32541 | 2488 ft | 112 kts | 313° |
| 2026-04-28 02:28 | 44.94636 | -79.33411 | 2604 ft | 117 kts | 308° |
| 2026-04-28 02:28 | 44.95179 | -79.34287 | 2771 ft | 118 kts | 311° |
| 2026-04-28 02:28 | 44.95728 | -79.35159 | 2901 ft | 122 kts | 311° |
| 2026-04-28 02:29 | 44.96276 | -79.36050 | 3079 ft | 120 kts | 309° |
| 2026-04-28 02:29 | 44.96855 | -79.36918 | 3193 ft | 122 kts | 318° |
| 2026-04-28 02:29 | 44.97454 | -79.37739 | 3374 ft | 120 kts | 316° |
| 2026-04-28 02:29 | 44.98082 | -79.38531 | 3533 ft | 121 kts | 317° |
| 2026-04-28 02:30 | 44.98714 | -79.39308 | 3688 ft | 122 kts | 320° |
| 2026-04-28 02:30 | 44.99350 | -79.40076 | 3859 ft | 119 kts | 318° |
| 2026-04-28 02:30 | 45.00005 | -79.40823 | 3973 ft | 123 kts | 321° |
| 2026-04-28 02:30 | 45.00657 | -79.41578 | 4133 ft | 121 kts | 317° |
| 2026-04-28 02:31 | 45.01298 | -79.42379 | 4273 ft | 121 kts | 317° |
| 2026-04-28 02:31 | 45.01947 | -79.43142 | 4329 ft | 125 kts | 319° |
| 2026-04-28 02:31 | 45.02611 | -79.43891 | 4418 ft | 119 kts | 321° |
| 2026-04-28 02:31 | 45.03285 | -79.44626 | 4429 ft | 123 kts | 320° |
| 2026-04-28 02:32 | 45.03945 | -79.45362 | 4459 ft | 122 kts | 321° |
| 2026-04-28 02:32 | 45.04603 | -79.46120 | 4482 ft | 120 kts | 319° |
| 2026-04-28 02:32 | 45.05253 | -79.46893 | 4447 ft | 124 kts | 318° |
| 2026-04-28 02:32 | 45.05884 | -79.47692 | 4455 ft | 122 kts | 316° |
| 2026-04-28 02:33 | 45.06517 | -79.48500 | 4449 ft | 121 kts | 313° |
| 2026-04-28 02:33 | 45.07110 | -79.49321 | 4449 ft | 121 kts | 311° |
| 2026-04-28 02:33 | 45.07691 | -79.50211 | 4440 ft | 121 kts | 309° |
| 2026-04-28 02:33 | 45.08253 | -79.51082 | 4428 ft | 121 kts | 308° |
| 2026-04-28 02:34 | 45.08816 | -79.51966 | 4428 ft | 121 kts | 309° |
| 2026-04-28 02:34 | 45.09372 | -79.52851 | 4446 ft | 120 kts | 310° |
| 2026-04-28 02:34 | 45.09945 | -79.53738 | 4424 ft | 122 kts | 309° |
| 2026-04-28 02:34 | 45.10518 | -79.54606 | 4431 ft | 120 kts | 310° |
| 2026-04-28 02:35 | 45.11090 | -79.55489 | 4407 ft | 122 kts | 307° |
| 2026-04-28 02:35 | 45.11655 | -79.56365 | 4412 ft | 121 kts | 310° |
| 2026-04-28 02:35 | 45.12228 | -79.57247 | 4418 ft | 120 kts | 308° |
| 2026-04-28 02:35 | 45.12779 | -79.58141 | 4398 ft | 122 kts | 308° |
| 2026-04-28 02:36 | 45.13334 | -79.59042 | 4398 ft | 121 kts | 308° |
| 2026-04-28 02:36 | 45.13880 | -79.59962 | 4377 ft | 122 kts | 308° |
| 2026-04-28 02:36 | 45.14435 | -79.60857 | 4375 ft | 122 kts | 308° |
| 2026-04-28 02:36 | 45.14996 | -79.61753 | 4358 ft | 121 kts | 310° |
| 2026-04-28 02:37 | 45.15558 | -79.62652 | 4349 ft | 122 kts | 307° |
| 2026-04-28 02:37 | 45.16079 | -79.63580 | 4342 ft | 119 kts | 304° |
| 2026-04-28 02:37 | 45.16597 | -79.64516 | 4261 ft | 120 kts | 304° |
| 2026-04-28 02:37 | 45.17094 | -79.65458 | 4199 ft | 118 kts | 301° |
| 2026-04-28 02:38 | 45.17571 | -79.66414 | 4076 ft | 120 kts | 301° |
| 2026-04-28 02:38 | 45.18055 | -79.67376 | 3984 ft | 118 kts | 302° |
| 2026-04-28 02:38 | 45.18540 | -79.68322 | 3865 ft | 120 kts | 302° |
| 2026-04-28 02:38 | 45.19034 | -79.69279 | 3731 ft | 121 kts | 302° |
| 2026-04-28 02:39 | 45.19534 | -79.70227 | 3587 ft | 120 kts | 302° |
| 2026-04-28 02:39 | 45.20023 | -79.71180 | 3432 ft | 121 kts | 303° |
| 2026-04-28 02:39 | 45.20520 | -79.72138 | 3303 ft | 121 kts | 302° |
| 2026-04-28 02:39 | 45.20999 | -79.73116 | 3133 ft | 121 kts | 298° |
| 2026-04-28 02:40 | 45.21453 | -79.74108 | 2937 ft | 121 kts | 298° |
| 2026-04-28 02:40 | 45.21922 | -79.75095 | 2803 ft | 119 kts | 302° |
| 2026-04-28 02:40 | 45.22394 | -79.76053 | 2674 ft | 116 kts | 300° |
| 2026-04-28 02:40 | 45.22829 | -79.77013 | 2567 ft | 114 kts | 299° |
| 2026-04-28 02:41 | 45.23271 | -79.77945 | 2435 ft | 115 kts | 306° |
| 2026-04-28 02:41 | 45.23723 | -79.78880 | 2324 ft | 113 kts | 301° |
| 2026-04-28 02:41 | 45.24137 | -79.79798 | 2217 ft | 107 kts | 305° |
| 2026-04-28 02:41 | 45.24675 | -79.80464 | 2095 ft | 102 kts | 332° |
| 2026-04-28 02:42 | 45.25319 | -79.80884 | 1897 ft | 101 kts | 341° |
| 2026-04-28 02:42 | 45.25986 | -79.81254 | 1729 ft | 102 kts | 341° |
| 2026-04-28 02:42 | 45.26656 | -79.81565 | 1535 ft | 102 kts | 345° |
| 2026-04-28 02:42 | 45.27318 | -79.81872 | 1416 ft | 97 kts | 344° |
| 2026-04-28 02:43 | 45.27931 | -79.82113 | 1333 ft | 90 kts | 348° |
| 2026-04-28 02:43 | 45.28564 | -79.82334 | 1257 ft | 93 kts | 350° |
| 2026-04-28 02:43 | 45.29095 | -79.82707 | 1242 ft | 83 kts | 303° |
| 2026-04-28 02:43 | 45.29049 | -79.83437 | 1192 ft | 79 kts | 242° |
| 2026-04-28 02:44 | 45.28786 | -79.84077 | 1216 ft | 73 kts | 215° |
| 2026-04-28 02:44 | 45.28299 | -79.84192 | 1176 ft | 71 kts | 173° |
| 2026-04-28 02:44 | 45.27833 | -79.84022 | 1138 ft | 67 kts | 160° |
| 2026-04-28 02:44 | 45.27401 | -79.83807 | 1083 ft | 65 kts | 163° |
| 2026-04-28 02:45 | 45.26974 | -79.83591 | 1045 ft | 64 kts | 164° |
| 2026-04-28 02:45 | 45.26590 | -79.83423 | 979 ft | 55 kts | 154° |
| 2026-04-28 02:45 | 45.26233 | -79.83229 | 838 ft | 52 kts | 153° |
| 2026-04-28 02:45 | 45.26029 | -79.83121 | 823 ft | 11 kts | 159° |
| 2026-04-28 02:46 | 45.25928 | -79.83069 | 824 ft | 20 kts | 161° |
| 2026-04-28 02:46 | 45.25774 | -79.82990 | 831 ft | 28 kts | 162° |
| 2026-04-28 02:46 | 45.25616 | -79.82904 | 835 ft | 21 kts | 159° |
| 2026-04-28 02:46 | 45.25485 | -79.82839 | 833 ft | 22 kts | 160° |
| 2026-04-28 02:47 | 45.25340 | -79.82772 | 833 ft | 17 kts | 169° |
| 2026-04-28 02:47 | 45.25290 | -79.82846 | 833 ft | 11 kts | 253° |
| 2026-04-28 02:47 | 45.25279 | -79.82919 | 830 ft | 7 kts | 286° |
| 2026-04-28 02:47 | 45.25313 | -79.82948 | 830 ft | 4 kts | 358° |
| 2026-04-28 02:48 | 45.25336 | -79.82948 | 833 ft | 0 kts | 358° |
| 2026-04-28 02:48 | 45.25341 | -79.82949 | 834 ft | 0 kts | 355° |